Time;durP1;ratioP1;P1;durP2;ratioP2;P2;SDS_P1;SDS_P2;PMS_P1;PMS_P2;Temp;Humidity;BMP_temperature;BMP_pressure;BME280_temperature;BME280_humidity;BME280_pressure;Samples;Min_cycle;Max_cycle;Signal;HPM_P1;HPM_P2
2022/05/17 00:02:03;;;;;;;10.70;9.67;;;16.30;99.90;;;15.38;92.86;98285.22;5075174;28;20526;-74
2022/05/17 00:04:31;;;;;;;13.60;10.07;;;16.30;99.90;;;15.42;92.20;98283.72;5075778;28;20497;-74
2022/05/17 00:07:00;;;;;;;13.73;9.80;;;16.30;99.90;;;15.48;91.94;98282.72;5073976;28;20436;-75
2022/05/17 00:09:28;;;;;;;10.73;9.73;;;16.40;99.90;;;15.38;92.08;98272.47;5073669;28;20448;-75
2022/05/17 00:11:56;;;;;;;13.17;10.67;;;16.40;99.90;;;15.29;92.50;98273.91;5075165;28;20440;-75
2022/05/17 00:14:24;;;;;;;10.90;9.80;;;16.30;99.90;;;15.55;91.95;98283.44;5073518;28;20495;-75
2022/05/17 00:16:51;;;;;;;10.53;9.53;;;16.40;99.90;;;15.43;92.05;98274.47;5073984;28;20448;-75
2022/05/17 00:19:20;;;;;;;11.63;9.63;;;16.40;99.90;;;15.53;92.07;98277.38;5075141;28;20527;-75
2022/05/17 00:21:48;;;;;;;12.40;10.10;;;16.40;99.90;;;15.46;92.23;98284.03;5073415;28;20450;-74
2022/05/17 00:24:21;;;;;;;10.53;9.50;;;16.40;99.90;;;15.65;91.40;98279.25;5075102;28;20464;-74
2022/05/17 00:26:48;;;;;;;10.37;9.33;;;16.40;99.90;;;15.46;91.35;98279.44;5074844;28;20447;-73
2022/05/17 00:29:15;;;;;;;11.73;9.40;;;16.40;99.90;;;15.62;91.16;98277.84;5074331;28;20436;-75
2022/05/17 00:31:42;;;;;;;9.80;8.90;;;16.50;99.90;;;15.63;90.79;98284.09;5075024;28;20954;-75
2022/05/17 00:34:10;;;;;;;12.10;9.50;;;16.50;99.90;;;15.59;90.59;98272.88;5072897;28;20958;-74
2022/05/17 00:36:37;;;;;;;9.93;9.03;;;16.50;99.90;;;15.72;90.05;98278.03;5074843;28;20527;-74
2022/05/17 00:39:05;;;;;;;10.10;8.20;;;16.60;99.90;;;15.64;90.32;98283.03;5074232;28;20447;-75
2022/05/17 00:41:33;;;;;;;9.83;8.90;;;16.50;99.90;;;15.73;89.57;98284.31;5074786;28;20497;-75
2022/05/17 00:46:52;;;;;;;10.40;9.23;;;16.60;99.90;;;15.60;90.14;98279.16;5074885;28;20460;-74
2022/05/17 00:49:26;;;;;;;10.13;8.17;;;16.50;99.90;;;15.61;89.22;98275.38;5074176;28;20446;-74
2022/05/17 00:51:58;;;;;;;9.90;8.33;;;16.50;99.80;;;15.73;88.98;98279.69;5075405;28;20440;-74
2022/05/17 00:54:25;;;;;;;9.00;8.10;;;16.60;99.90;;;15.67;89.23;98279.81;5094584;28;20459;-74
2022/05/17 00:56:59;;;;;;;10.10;9.20;;;16.60;99.80;;;15.52;89.85;98275.72;5094595;28;20438;-75
2022/05/17 00:59:26;;;;;;;10.33;8.63;;;16.50;99.60;;;15.61;89.89;98278.91;5094960;28;20447;-75
2022/05/17 01:01:54;;;;;;;9.47;8.20;;;16.50;99.90;;;15.70;88.92;98288.34;5096143;28;20439;-74
2022/05/17 01:04:24;;;;;;;9.33;8.27;;;16.50;99.90;;;15.64;89.07;98288.47;5093670;28;20931;-74
2022/05/17 01:06:59;;;;;;;8.50;7.80;;;16.50;99.70;;;15.71;88.86;98278.28;5101437;28;20504;-74
2022/05/17 01:09:26;;;;;;;9.77;8.40;;;16.60;98.80;;;15.62;89.10;98277.00;5113929;28;20441;-74
2022/05/17 01:11:54;;;;;;;10.00;8.33;;;16.50;98.90;;;15.68;88.65;98281.47;5099278;28;20477;-74
2022/05/17 01:17:08;;;;;;;8.97;8.17;;;16.50;98.80;;;15.55;89.25;98283.44;5074612;28;20524;-75
2022/05/17 01:19:39;;;;;;;9.90;8.90;;;16.50;99.10;;;15.61;88.53;98280.81;5072856;28;20949;-75
2022/05/17 01:22:08;;;;;;;11.00;8.80;;;16.50;98.70;;;15.52;88.41;98278.44;5074212;28;20449;-75
2022/05/17 01:24:36;;;;;;;10.30;8.63;;;16.50;98.30;;;15.41;89.22;98276.63;5074221;28;20487;-75
2022/05/17 01:27:11;;;;;;;11.13;8.03;;;16.40;98.60;;;15.51;88.97;98284.16;5072651;28;20939;-74
2022/05/17 01:29:41;;;;;;;9.07;8.17;;;16.40;98.80;;;15.47;88.77;98286.53;5073309;28;20488;-74
2022/05/17 01:32:11;;;;;;;9.60;8.67;;;16.40;98.60;;;15.60;88.26;98281.88;5073146;28;20516;-74
2022/05/17 01:34:39;;;;;;;10.33;9.33;;;16.50;97.80;;;15.28;87.83;98224.09;5073405;28;20473;-74
2022/05/17 01:37:11;;;;;;;10.23;8.50;;;16.50;97.80;;;15.68;87.40;98278.75;5073927;28;20505;-74
2022/05/17 01:39:38;;;;;;;9.33;8.17;;;16.50;97.60;;;15.56;87.97;98278.81;5074183;28;20443;-74
2022/05/17 01:42:07;;;;;;;8.73;7.93;;;16.50;97.30;;;15.62;87.39;98269.69;5072206;28;20484;-74
2022/05/17 01:44:35;;;;;;;9.67;8.70;;;16.50;97.20;;;15.44;87.58;98271.50;5073759;28;20463;-74
2022/05/17 01:47:02;;;;;;;13.20;8.80;;;16.40;96.90;;;15.38;87.80;98267.03;5072353;28;20443;-74
2022/05/17 01:49:29;;;;;;;10.50;9.40;;;16.40;97.10;;;15.42;87.50;98272.81;5073906;28;20535;-74
2022/05/17 01:51:57;;;;;;;9.60;8.70;;;16.40;97.20;;;15.44;87.47;98270.69;5078710;28;20535;-74
2022/05/17 01:54:26;;;;;;;9.63;8.77;;;16.40;97.10;;;15.42;87.38;98275.53;5092618;28;20491;-74
2022/05/17 01:56:53;;;;;;;10.60;9.60;;;16.40;96.80;;;15.42;87.19;98272.81;5092284;28;20492;-74
2022/05/17 01:59:22;;;;;;;9.60;8.60;;;16.40;96.90;;;15.49;87.27;98272.69;5092953;28;20524;-74
2022/05/17 02:01:50;;;;;;;10.13;9.03;;;16.40;96.70;;;15.46;86.99;98284.88;5098098;28;20439;-74
2022/05/17 02:04:17;;;;;;;10.97;9.83;;;16.40;96.40;;;15.40;86.41;98269.50;5084125;28;20543;-74
2022/05/17 02:06:44;;;;;;;10.50;8.43;;;16.40;95.80;;;15.55;86.51;98279.88;5077629;28;20985;-75
2022/05/17 02:09:11;;;;;;;11.70;9.83;;;16.40;96.50;;;15.50;86.74;98285.22;5076306;28;20836;-74
2022/05/17 02:11:40;;;;;;;11.30;10.30;;;16.40;96.10;;;15.50;86.52;98283.31;5076249;28;20513;-74
2022/05/17 02:14:08;;;;;;;9.90;8.93;;;16.40;96.10;;;15.51;86.77;98274.06;5076392;28;20464;-75
2022/05/17 02:16:37;;;;;;;11.73;10.63;;;16.40;96.30;;;15.39;87.04;98273.28;5077832;28;20463;-74
2022/05/17 02:19:06;;;;;;;12.00;9.60;;;16.30;96.50;;;15.39;87.17;98276.84;5077493;28;20439;-77
2022/05/17 02:21:34;;;;;;;11.30;10.30;;;16.30;96.90;;;15.36;86.93;98279.22;5077498;28;20437;-76
2022/05/17 02:24:02;;;;;;;14.40;11.03;;;16.30;96.60;;;15.27;87.44;98271.44;5076214;28;20445;-76
2022/05/17 02:26:29;;;;;;;12.60;11.40;;;16.20;97.00;;;15.20;88.28;98276.16;5077069;28;20444;-75
2022/05/17 02:28:58;;;;;;;15.47;12.30;;;16.20;97.50;;;15.26;88.10;98285.25;5075723;28;20988;-75
2022/05/17 02:31:25;;;;;;;13.90;12.50;;;16.20;98.00;;;15.15;88.38;98276.06;5075399;28;20528;-74
2022/05/17 02:33:52;;;;;;;13.00;11.73;;;16.10;97.70;;;15.15;88.34;98284.22;5077249;28;20440;-73
2022/05/17 02:36:19;;;;;;;13.23;12.00;;;16.10;98.30;;;15.01;89.33;98270.03;5076759;28;20443;-74
2022/05/17 02:38:46;;;;;;;14.23;12.93;;;16.00;98.50;;;14.98;89.42;98282.22;5076810;28;20439;-73
2022/05/17 02:41:17;;;;;;;14.23;12.73;;;16.00;99.20;;;14.93;89.79;98273.13;5091032;28;20823;-74
2022/05/17 02:43:45;;;;;;;14.23;12.80;;;15.90;99.30;;;14.91;90.07;98281.50;5096345;28;20745;-73
2022/05/17 02:46:14;;;;;;;15.00;13.60;;;15.90;99.90;;;15.00;89.96;98282.81;5096917;28;20827;-74
2022/05/17 02:48:41;;;;;;;14.73;12.93;;;15.90;99.90;;;14.90;90.51;98282.59;5096908;28;20835;-74
2022/05/17 02:51:11;;;;;;;17.47;14.10;;;15.90;99.90;;;14.88;90.04;98287.44;5096000;28;20819;-74
2022/05/17 02:53:38;;;;;;;14.10;12.80;;;15.90;99.90;;;14.94;89.83;98288.38;5095484;28;20429;-74
2022/05/17 02:56:06;;;;;;;16.27;14.57;;;15.90;99.90;;;14.89;90.49;98291.81;5095910;28;20570;-74
2022/05/17 02:58:34;;;;;;;16.07;14.47;;;15.90;99.90;;;14.82;90.89;98302.00;5096305;28;20858;-74
2022/05/17 03:01:02;;;;;;;16.77;14.97;;;15.80;99.90;;;14.84;90.59;98299.88;5096790;28;20455;-73
2022/05/17 03:03:31;;;;;;;15.07;13.47;;;15.80;99.90;;;15.02;89.79;98304.34;5096444;28;20533;-74
2022/05/17 03:05:58;;;;;;;20.20;15.07;;;15.90;99.90;;;14.86;90.41;98303.16;5112036;28;20864;-73
2022/05/17 03:08:25;;;;;;;14.90;13.30;;;15.90;99.90;;;14.88;90.47;98306.47;5095361;28;20434;-74
2022/05/17 03:10:52;;;;;;;17.30;14.70;;;15.90;99.90;;;14.90;90.50;98309.78;5095912;28;20496;-74
2022/05/17 03:13:19;;;;;;;17.10;15.50;;;15.90;99.90;;;14.95;90.27;98312.63;5095545;28;20930;-75
2022/05/17 03:15:50;;;;;;;18.07;15.17;;;15.90;99.90;;;14.91;90.64;98316.88;5096623;28;20463;-73
2022/05/17 03:18:17;;;;;;;16.77;15.17;;;15.90;99.90;;;14.89;90.85;98315.47;5096297;28;20497;-74
2022/05/17 03:20:48;;;;;;;16.93;15.30;;;15.80;99.90;;;14.84;90.27;98305.31;5096298;28;20431;-73
2022/05/17 03:23:16;;;;;;;16.80;15.00;;;15.90;99.90;;;14.80;90.62;98318.53;5096198;28;20444;-74
2022/05/17 03:25:43;;;;;;;17.50;15.53;;;15.80;99.90;;;14.74;91.03;98322.22;5096426;28;20449;-73
2022/05/17 03:28:13;;;;;;;17.63;16.03;;;15.70;99.90;;;14.65;92.05;98318.97;5096284;28;20443;-73
2022/05/17 03:30:41;;;;;;;17.87;16.03;;;15.70;99.90;;;14.48;92.98;98329.69;5095116;28;20435;-74
2022/05/17 03:33:09;;;;;;;20.90;15.93;;;15.50;99.90;;;14.39;93.11;98328.38;5095680;28;20437;-73
2022/05/17 03:35:37;;;;;;;18.67;16.77;;;15.50;99.90;;;14.39;93.49;98342.81;5094187;28;20900;-74
2022/05/17 03:38:06;;;;;;;18.07;16.17;;;15.40;99.90;;;14.36;94.08;98340.56;5095325;28;20449;-73
2022/05/17 03:40:33;;;;;;;18.03;16.23;;;15.40;99.90;;;14.28;94.40;98341.72;5094584;28;20502;-73
2022/05/17 03:43:01;;;;;;;18.97;16.90;;;15.30;99.90;;;14.28;94.45;98349.88;5096302;28;20441;-73
2022/05/17 03:45:28;;;;;;;19.87;17.87;;;15.30;99.90;;;14.28;94.30;98352.59;5095259;28;20434;-72
2022/05/17 03:47:55;;;;;;;18.97;16.23;;;15.30;99.90;;;14.30;94.07;98360.47;5095689;28;20506;-71
2022/05/17 03:50:22;;;;;;;19.37;17.47;;;15.30;99.90;;;14.35;94.04;98357.09;5095507;28;20442;-71
2022/05/17 03:52:49;;;;;;;18.30;15.60;;;15.30;99.90;;;14.40;93.68;98360.75;5094243;28;20486;-75
2022/05/17 03:55:18;;;;;;;19.00;17.00;;;15.40;99.90;;;14.39;93.83;98360.97;5095183;28;20563;-76
2022/05/17 03:57:45;;;;;;;18.30;16.70;;;15.40;99.90;;;14.37;93.56;98360.38;5095639;28;20470;-75
2022/05/17 04:00:13;;;;;;;18.50;16.80;;;15.40;99.90;;;14.38;93.18;98352.03;5095392;28;20540;-76
2022/05/17 04:02:41;;;;;;;19.37;17.27;;;15.40;99.90;;;14.17;93.32;98337.06;5094647;28;20561;-76
2022/05/17 04:05:10;;;;;;;19.40;17.37;;;15.40;99.90;;;14.42;92.99;98365.97;5095882;28;20474;-75
2022/05/17 04:07:38;;;;;;;18.00;16.20;;;15.40;99.90;;;14.55;92.58;98367.66;5094151;28;20438;-74
2022/05/17 04:10:07;;;;;;;20.17;16.40;;;15.50;99.90;;;14.39;92.62;98359.09;5095257;28;20919;-74
2022/05/17 04:12:36;;;;;;;19.13;17.20;;;15.40;99.90;;;14.33;93.21;98357.34;5093839;28;20902;-74
2022/05/17 04:15:03;;;;;;;19.20;17.40;;;15.40;99.90;;;14.29;93.50;98369.69;5093453;28;20991;-74
2022/05/17 04:17:31;;;;;;;22.43;18.03;;;15.30;99.90;;;14.40;93.43;98371.63;5095057;28;20783;-75
2022/05/17 04:20:00;;;;;;;20.23;18.17;;;15.40;99.90;;;14.60;91.72;98365.06;5094743;28;20494;-74
2022/05/17 04:22:27;;;;;;;20.90;17.80;;;15.50;99.90;;;14.77;90.59;98365.25;5094872;28;20532;-74
2022/05/17 04:24:55;;;;;;;17.33;15.70;;;15.70;99.90;;;15.07;89.04;98369.78;5093548;28;21019;-74
2022/05/17 04:27:23;;;;;;;20.03;17.97;;;16.00;98.60;;;15.24;87.87;98372.63;5110197;28;20929;-76
2022/05/17 04:29:52;;;;;;;17.87;16.17;;;16.20;96.50;;;15.28;86.58;98371.06;5094458;28;20766;-74
2022/05/17 04:32:20;;;;;;;19.00;17.30;;;16.30;95.40;;;15.18;87.32;98373.56;5094903;28;20514;-73
2022/05/17 04:34:47;;;;;;;18.57;16.60;;;16.20;95.70;;;15.08;88.08;98389.63;5094832;28;20926;-73
2022/05/17 04:37:14;;;;;;;19.67;17.57;;;16.10;96.30;;;14.80;89.16;98374.84;5093873;28;20525;-74
2022/05/17 04:39:41;;;;;;;20.03;17.63;;;15.90;97.40;;;14.63;90.18;98380.91;5093856;28;20892;-74
2022/05/17 04:42:10;;;;;;;19.50;17.60;;;15.70;99.10;;;14.99;89.02;98387.28;5094138;28;20443;-73
2022/05/17 04:44:37;;;;;;;21.83;17.33;;;15.90;99.00;;;15.22;87.33;98393.78;5093287;28;20531;-74
2022/05/17 04:47:09;;;;;;;19.30;17.07;;;16.10;96.50;;;15.34;87.04;98385.63;5094069;28;20955;-74
2022/05/17 04:49:36;;;;;;;19.47;17.53;;;16.20;96.10;;;15.85;84.22;98383.19;5094660;28;20973;-76
2022/05/17 04:52:04;;;;;;;17.80;16.00;;;16.70;94.00;;;16.49;81.01;98394.22;5094846;28;20481;-79
2022/05/17 04:54:31;;;;;;;17.57;15.73;;;17.30;91.70;;;16.99;78.35;98401.66;5093549;28;20488;-79
2022/05/17 04:56:58;;;;;;;17.27;15.67;;;17.80;90.10;;;17.28;75.82;98367.94;5094482;28;20549;-75
2022/05/17 04:59:25;;;;;;;15.53;14.00;;;18.30;88.00;;;18.07;73.85;98404.25;5094282;28;20475;-73
2022/05/17 05:01:52;;;;;;;18.03;15.10;;;18.90;86.60;;;18.23;72.23;98407.19;5094130;28;20444;-71
2022/05/17 05:04:21;;;;;;;16.73;14.77;;;19.10;84.80;;;17.94;72.80;98410.91;5093934;28;20458;-69
2022/05/17 05:06:48;;;;;;;15.67;14.07;;;19.00;84.40;;;18.45;70.71;98420.00;5092702;28;20538;-70
2022/05/17 05:09:15;;;;;;;16.30;14.90;;;19.50;83.60;;;18.17;71.43;98419.97;5093854;28;20467;-70
2022/05/17 05:11:42;;;;;;;16.50;14.80;;;19.30;83.50;;;17.52;74.14;98416.91;5094009;28;20508;-70
2022/05/17 05:14:09;;;;;;;17.03;15.43;;;18.80;84.20;;;17.58;73.68;98426.00;5092513;28;20713;-70
2022/05/17 05:16:38;;;;;;;17.90;16.10;;;18.80;84.50;;;17.46;74.30;98428.84;5093668;28;20922;-68
2022/05/17 05:19:05;;;;;;;16.87;15.27;;;18.60;84.60;;;17.61;74.03;98428.22;5092711;28;20979;-69
2022/05/17 05:21:34;;;;;;;17.70;14.80;;;18.70;84.80;;;18.09;71.84;98418.50;5109301;28;20445;-69
2022/05/17 05:24:04;;;;;;;16.13;14.63;;;19.00;84.00;;;18.29;71.28;98440.88;5093799;28;20466;-71
2022/05/17 05:26:33;;;;;;;16.03;14.47;;;19.30;83.60;;;18.01;71.45;98429.88;5093841;28;20909;-71
2022/05/17 05:29:00;;;;;;;16.30;14.60;;;19.20;83.40;;;17.55;74.02;98432.78;5093904;28;20439;-67
2022/05/17 05:31:27;;;;;;;17.27;15.30;;;18.70;84.50;;;17.30;75.24;98436.81;5093765;28;20471;-71
2022/05/17 05:33:55;;;;;;;16.80;15.10;;;18.40;85.40;;;17.57;74.12;98430.63;5094186;28;20465;-75
2022/05/17 05:36:22;;;;;;;15.57;14.07;;;18.60;85.30;;;18.26;71.85;98437.56;5097738;28;20463;-75
2022/05/17 05:38:51;;;;;;;15.73;13.83;;;19.20;84.30;;;19.16;68.23;98432.72;5098309;28;20438;-74
2022/05/17 05:41:18;;;;;;;15.30;13.70;;;20.00;82.50;;;19.44;66.84;98425.25;5097726;28;20518;-75
2022/05/17 05:43:45;;;;;;;14.80;13.40;;;20.60;81.10;;;19.71;65.96;98426.22;5097899;28;20523;-76
2022/05/17 05:46:12;;;;;;;16.33;14.80;;;21.00;80.00;;;19.77;65.15;98430.66;5098006;28;20441;-75
2022/05/17 05:48:39;;;;;;;15.20;13.90;;;21.40;78.50;;;19.70;65.75;98430.06;5113231;28;20432;-73
2022/05/17 05:51:07;;;;;;;16.10;14.50;;;21.30;78.60;;;19.98;64.65;98428.03;5098090;28;20467;-74
2022/05/17 05:53:34;;;;;;;16.63;14.80;;;21.20;78.30;;;20.30;63.58;98427.91;5096756;28;20980;-75
2022/05/17 05:56:02;;;;;;;16.13;14.57;;;21.50;77.90;;;20.16;64.06;98438.53;5095705;28;20467;-73
2022/05/17 05:58:29;;;;;;;17.70;15.80;;;21.70;77.30;;;19.54;65.51;98438.19;5099772;28;20532;-84
2022/05/17 06:00:57;;;;;;;18.73;14.77;;;21.20;77.40;;;19.80;65.29;98441.09;5110250;28;20463;-91
2022/05/17 06:03:24;;;;;;;15.53;14.13;;;21.30;77.40;;;19.84;64.64;98424.94;5112186;28;20435;-87
2022/05/17 06:05:51;;;;;;;16.40;14.70;;;21.20;77.50;;;19.93;64.55;98450.78;5105450;28;20465;-87
2022/05/17 06:08:19;;;;;;;16.90;15.10;;;21.40;77.20;;;20.61;62.46;98452.69;5102463;28;20503;-86
2022/05/17 06:10:47;;;;;;;16.50;14.90;;;22.00;76.40;;;20.21;63.87;98456.94;5102866;28;20517;-88
2022/05/17 06:13:16;;;;;;;16.67;15.17;;;21.80;76.40;;;19.43;65.83;98398.13;5102012;28;20443;-89
2022/05/17 06:15:46;;;;;;;17.60;15.90;;;21.20;77.40;;;19.31;66.66;98444.88;5103820;28;20463;-88
2022/05/17 06:18:13;;;;;;;18.03;16.23;;;20.70;78.00;;;18.66;67.73;98405.44;5103293;28;20423;-89
2022/05/17 06:20:41;;;;;;;19.60;17.70;;;20.20;78.80;;;18.46;69.38;98440.81;5098866;28;20526;-75
2022/05/17 06:23:10;;;;;;;18.80;16.90;;;19.80;79.60;;;18.35;69.41;98448.88;5097121;28;20351;-82
2022/05/17 06:25:37;;;;;;;19.67;17.90;;;19.50;80.10;;;18.22;70.01;98444.66;5096426;28;20800;-76
2022/05/17 06:28:05;;;;;;;20.10;18.00;;;19.30;80.60;;;18.03;70.99;98449.59;5098517;28;20446;-79
2022/05/17 06:30:34;;;;;;;20.00;18.10;;;19.20;81.10;;;18.10;69.91;98389.25;5096791;28;20447;-76
2022/05/17 06:33:01;;;;;;;19.63;17.37;;;19.30;81.30;;;18.43;69.39;98447.59;5095230;28;20497;-77
2022/05/17 06:35:29;;;;;;;20.57;18.47;;;19.40;81.10;;;18.20;69.80;98448.72;5097229;28;20435;-78
2022/05/17 06:37:56;;;;;;;20.13;18.10;;;19.20;81.30;;;18.20;70.21;98448.72;5096911;28;20951;-78
2022/05/17 06:40:23;;;;;;;19.97;18.00;;;19.10;81.50;;;18.26;69.54;98447.69;5096910;28;20974;-77
2022/05/17 06:42:50;;;;;;;21.70;19.60;;;19.30;81.30;;;18.54;67.38;98448.53;5097382;28;20468;-78
2022/05/17 06:45:18;;;;;;;20.97;18.87;;;19.40;80.20;;;18.18;67.21;98448.13;5096658;28;20918;-79
2022/05/17 06:47:46;;;;;;;21.20;18.97;;;19.30;79.00;;;18.27;67.13;98450.16;5096906;28;20459;-78
2022/05/17 06:50:13;;;;;;;22.03;19.83;;;19.20;79.10;;;18.36;66.11;98447.00;5104147;28;20460;-85
2022/05/17 06:52:40;;;;;;;21.87;19.67;;;19.30;78.70;;;18.59;65.68;98434.94;5109424;28;20938;-84
2022/05/17 06:55:09;;;;;;;21.20;19.00;;;19.50;78.60;;;18.61;65.55;98442.88;5108874;28;20447;-86
2022/05/17 06:57:37;;;;;;;20.80;18.73;;;19.50;78.60;;;18.65;65.61;98446.72;5105567;28;20471;-86
2022/05/17 07:00:06;;;;;;;19.80;17.97;;;19.50;78.50;;;18.80;64.45;98460.59;5100147;28;20469;-87
2022/05/17 07:02:34;;;;;;;21.03;19.00;;;19.60;77.40;;;18.69;61.76;98454.16;5109992;28;20424;-86
2022/05/17 07:05:02;;;;;;;21.60;19.30;;;19.60;75.10;;;18.79;61.64;98458.91;5117928;28;20444;-85
2022/05/17 07:07:29;;;;;;;20.43;18.23;;;19.70;75.00;;;18.72;61.64;98458.31;5109068;28;20428;-88
2022/05/17 07:15:26;;;;;;;20.00;18.00;;;19.70;73.00;;;19.05;59.73;98458.38;5110724;28;20443;-86
2022/05/17 07:17:53;;;;;;;19.20;16.40;;;19.90;73.30;;;18.94;59.81;98462.88;5120252;28;20436;-86
2022/05/17 07:20:21;;;;;;;20.43;18.07;;;19.90;72.90;;;19.19;60.34;98465.06;5118709;28;20448;-88
2022/05/17 07:22:49;;;;;;;20.47;18.37;;;20.00;73.70;;;19.34;59.35;98469.84;5119254;28;20462;-87
2022/05/17 07:25:16;;;;;;;18.97;17.10;;;20.10;72.70;;;19.25;59.27;98464.03;5117146;28;20451;-88
2022/05/17 07:27:43;;;;;;;19.57;17.57;;;20.20;72.60;;;19.11;58.99;98465.53;5115809;28;20525;-88
2022/05/17 07:30:12;;;;;;;19.50;17.07;;;20.00;71.80;;;19.07;58.91;98476.19;5114935;28;20437;-87
2022/05/17 07:32:39;;;;;;;20.47;16.17;;;20.00;71.90;;;19.50;59.17;98481.75;5106607;28;20979;-85
2022/05/17 07:35:08;;;;;;;17.93;16.13;;;20.20;72.60;;;19.95;57.68;98471.34;5096455;28;20770;-73
2022/05/17 07:37:37;;;;;;;20.67;16.70;;;20.70;72.10;;;19.63;57.94;98471.41;5097152;28;20475;-86
2022/05/17 07:40:06;;;;;;;18.27;16.47;;;20.60;71.10;;;19.33;59.18;98470.94;5096408;28;20470;-80
2022/05/17 07:42:33;;;;;;;19.30;17.40;;;20.20;71.80;;;18.91;59.77;98398.56;5094145;28;20444;-80
2022/05/17 07:45:00;;;;;;;19.27;17.37;;;20.20;72.40;;;19.47;59.28;98470.47;5094296;28;20530;-78
2022/05/17 07:47:29;;;;;;;21.87;17.23;;;20.30;72.00;;;19.57;57.61;98472.47;5095313;28;20464;-80
2022/05/17 07:49:57;;;;;;;19.20;17.13;;;20.50;71.00;;;19.45;56.76;98462.50;5095571;28;20442;-77
2022/05/17 07:52:24;;;;;;;16.93;15.23;;;20.40;69.40;;;19.75;56.36;98471.22;5095222;28;20442;-78
2022/05/17 07:54:54;;;;;;;18.33;16.37;;;20.60;69.80;;;19.50;55.90;98476.28;5094092;28;20490;-78
2022/05/17 07:57:23;;;;;;;16.90;15.30;;;20.40;68.30;;;19.51;56.45;98471.59;5095076;28;20456;-79
2022/05/17 07:59:51;;;;;;;20.97;16.80;;;20.30;69.00;;;19.81;55.47;98472.88;5095329;28;20438;-81
2022/05/17 08:02:18;;;;;;;18.97;16.90;;;20.50;68.60;;;19.78;56.21;98474.22;5093947;28;20450;-77
2022/05/17 08:04:46;;;;;;;18.60;16.70;;;20.70;68.90;;;20.28;55.27;98465.75;5095292;28;20767;-80
2022/05/17 08:07:13;;;;;;;18.33;15.53;;;21.00;68.70;;;20.71;54.91;98464.78;5093756;28;20877;-79
2022/05/17 08:09:40;;;;;;;18.90;17.07;;;21.40;68.80;;;20.77;55.16;98471.94;5096462;28;20977;-79
2022/05/17 08:12:10;;;;;;;16.40;14.80;;;21.60;69.00;;;20.26;57.78;98470.69;5111494;28;20462;-78
2022/05/17 08:14:40;;;;;;;16.80;15.17;;;21.20;70.20;;;19.63;58.51;98468.66;5095132;28;20528;-80
2022/05/17 08:17:09;;;;;;;20.10;16.27;;;20.70;70.20;;;19.31;59.08;98472.25;5093616;28;20956;-80
2022/05/17 08:19:37;;;;;;;16.43;14.93;;;20.20;70.50;;;19.58;58.59;98465.88;5094086;28;20501;-79
2022/05/17 08:22:06;;;;;;;16.50;14.57;;;20.40;70.60;;;19.40;56.47;98460.56;5094061;28;20439;-79
2022/05/17 08:27:31;;;;;;;15.10;13.60;;;20.30;68.50;;;19.17;56.75;98467.22;5095145;28;20445;-80
2022/05/17 08:27:36;;;;;;;15.13;13.73;;;20.10;68.30;;;19.26;56.21;98459.38;5094822;28;20445;-79
2022/05/17 08:30:10;;;;;;;13.40;12.00;;;20.10;67.70;;;19.45;55.41;98464.44;5095508;28;20935;-79
2022/05/17 08:35:40;;;;;;;13.73;12.30;;;20.40;68.80;;;19.88;54.65;98461.69;5093782;28;20441;-79
2022/05/17 08:38:10;;;;;;;13.03;11.73;;;20.70;67.30;;;19.85;53.75;98459.47;5095366;28;20484;-79
2022/05/17 08:40:54;;;;;;;14.07;12.63;;;20.70;66.10;;;20.21;53.87;98459.69;5094682;28;20443;-79
2022/05/17 08:43:30;;;;;;;12.70;11.57;;;21.00;66.60;;;20.19;52.57;98453.63;5095310;28;20475;-79
2022/05/17 08:46:11;;;;;;;14.60;13.20;;;21.10;65.40;;;20.08;52.66;98448.09;5097398;28;20526;-84
2022/05/17 08:48:49;;;;;;;14.80;13.30;;;21.00;65.00;;;20.12;53.28;98455.81;5115087;28;20786;-85
2022/05/17 08:51:25;;;;;;;14.13;12.83;;;20.90;65.30;;;20.37;52.52;98461.38;5098849;28;20437;-84
2022/05/17 08:53:53;;;;;;;17.50;15.33;;;21.20;65.40;;;20.15;54.29;98458.03;5094276;28;20933;-84
2022/05/17 08:56:21;;;;;;;15.40;13.90;;;21.00;66.00;;;20.35;53.94;98460.81;5106339;28;20971;-84
2022/05/17 08:58:53;;;;;;;14.37;12.93;;;21.10;66.10;;;20.65;52.89;98473.00;5117208;28;20442;-87
2022/05/17 09:01:25;;;;;;;14.80;13.10;;;21.40;65.90;;;20.62;52.64;98472.69;5118075;28;20450;-84
2022/05/17 09:04:14;;;;;;;14.43;13.13;;;21.40;65.50;;;20.83;52.60;98470.03;5115955;28;20442;-81
2022/05/17 09:06:50;;;;;;;13.17;11.80;;;21.60;65.40;;;20.87;51.27;98471.16;5117338;28;20435;-85
2022/05/17 09:09:25;;;;;;;13.73;12.43;;;21.70;64.50;;;21.27;51.15;98463.19;5115773;28;20438;-82
2022/05/17 09:11:59;;;;;;;12.63;11.43;;;22.00;64.50;;;21.18;50.63;98414.31;5114848;28;20786;-82
2022/05/17 09:14:31;;;;;;;13.00;11.80;;;22.20;64.30;;;21.18;51.93;98469.25;5114612;28;20920;-81
2022/05/17 09:17:07;;;;;;;14.27;12.80;;;22.20;64.30;;;21.28;51.96;98473.09;5114467;28;20492;-75
2022/05/17 09:19:35;;;;;;;15.90;13.00;;;22.10;64.70;;;21.39;52.35;98462.94;5113989;28;20471;-76
2022/05/17 09:22:03;;;;;;;15.33;13.77;;;22.20;65.30;;;21.36;52.91;98467.06;5114750;28;20438;-77
2022/05/17 09:24:38;;;;;;;15.13;13.73;;;22.20;65.60;;;21.18;54.02;98469.25;5114242;28;20508;-77
2022/05/17 09:27:08;;;;;;;16.30;14.60;;;22.10;66.00;;;20.75;54.57;98474.94;5113498;28;20516;-75
2022/05/17 09:29:43;;;;;;;16.70;14.57;;;21.80;66.10;;;20.32;55.67;98475.09;5112545;28;20529;-76
2022/05/17 09:32:13;;;;;;;16.07;14.40;;;21.30;66.70;;;20.30;55.31;98470.97;5114119;28;20525;-76
2022/05/17 09:34:43;;;;;;;11.70;10.60;;;21.20;66.50;;;20.72;51.98;98471.94;5113148;28;20437;-85
2022/05/17 09:37:14;;;;;;;10.73;9.57;;;21.40;64.20;;;20.35;50.99;98466.31;5114455;28;20469;-76
2022/05/17 09:39:46;;;;;;;9.70;8.80;;;21.30;62.60;;;20.43;51.28;98478.69;5114418;28;20528;-72
2022/05/17 09:42:27;;;;;;;10.27;9.37;;;21.20;62.80;;;20.76;51.70;98470.28;5114806;28;20521;-72
2022/05/17 09:44:56;;;;;;;11.87;9.40;;;21.50;63.60;;;21.00;51.23;98472.53;5113947;28;20465;-73
2022/05/17 09:47:31;;;;;;;11.33;10.23;;;21.70;63.60;;;20.93;50.57;98461.84;5119573;28;20435;-76
2022/05/17 09:53:01;;;;;;;9.70;8.83;;;22.00;63.00;;;21.91;48.41;98467.25;5112618;28;20431;-75
2022/05/17 09:55:31;;;;;;;10.90;9.80;;;22.60;61.90;;;21.88;49.17;98456.00;5113580;28;20430;-76
2022/05/17 09:58:02;;;;;;;10.33;9.30;;;22.70;61.90;;;21.44;50.21;98461.00;5113344;28;20855;-77
2022/05/17 10:00:41;;;;;;;10.10;8.80;;;22.50;62.00;;;21.33;49.76;98470.38;5113626;28;20435;-76
2022/05/17 10:03:30;;;;;;;11.43;8.83;;;22.20;61.80;;;21.24;49.76;98456.34;5114255;28;20517;-74
2022/05/17 10:06:01;;;;;;;9.97;8.97;;;22.10;61.60;;;21.14;49.61;98461.84;5113507;28;20788;-72
2022/05/17 10:08:41;;;;;;;9.97;8.97;;;22.10;61.20;;;21.15;49.26;98466.22;5114267;28;20478;-78
2022/05/17 10:11:20;;;;;;;12.37;8.93;;;22.00;60.80;;;21.16;48.67;98465.13;5113095;28;20435;-70
2022/05/17 10:14:02;;;;;;;9.60;8.47;;;22.00;60.40;;;21.44;49.44;98455.50;5112346;28;20431;-72
2022/05/17 10:16:41;;;;;;;9.87;8.90;;;22.10;61.30;;;21.35;50.01;98462.66;5113606;28;20470;-71
2022/05/17 10:19:20;;;;;;;9.23;8.33;;;22.20;61.80;;;21.27;50.34;98455.78;5113985;28;20435;-77
2022/05/17 10:21:53;;;;;;;9.77;7.57;;;22.10;61.60;;;21.25;48.74;98457.16;5116701;28;20478;-71
2022/05/17 10:24:29;;;;;;;8.07;7.30;;;22.10;60.40;;;21.15;49.31;98458.81;5110210;28;20476;-70
2022/05/17 10:27:05;;;;;;;8.20;7.40;;;22.00;60.50;;;21.40;49.51;98459.91;5095584;28;20450;-71
2022/05/17 10:29:40;;;;;;;8.97;7.93;;;22.10;61.00;;;21.49;49.21;98446.41;5096760;28;20427;-73
2022/05/17 10:32:19;;;;;;;9.00;8.03;;;22.30;61.00;;;21.65;47.95;98445.31;5095648;28;20845;-71
2022/05/17 10:34:53;;;;;;;8.90;8.13;;;22.50;60.20;;;21.62;47.66;98456.03;5086815;28;20452;-72